ADDS TAF Board (Experimental) INFO Settings

IDs: Format: Expanded Condensed

KMCO - Orlando Intl, FL, US

Issued at 2327 UTC 18 Apr 2015
Updated at: 0302 UTC 19 Apr 2015
Time0253Z 19/04Z 19/05Z 19/06Z 19/07Z 19/08Z 19/09Z 19/10Z 19/11Z 19/12Z 19/13Z 19/14Z 19/15Z 19/16Z
Type OBS PRVL PRVL PRVL PRVL PRVL PRVL PRVL PRVL PRVL PRVL PRVL PRVL PRVL
VIS 10 >6 >6 >6 >6 >6 >6 >6 >6 >6 >6 >6 >6 >6
CIG 180 250 250 250 250 250 250 250 250 250 250 250 250 250
Cover OVC BKN BKN BKN BKN BKN BKN BKN BKN BKN BKN BKN BKN BKN
FltCat VFR VFR VFR VFR VFR VFR VFR VFR VFR VFR VFR VFR VFR VFR
WX -- -- -- -- -- -- -- -- -- -- -- -- -- --
WDir 300 VRB VRB VRB VRB VRB VRB VRB VRB VRB VRB 180 180 180
WSpd 7 0 0 0 0 0 0 0 0 0 0 10 10 10
WGst -- -- -- -- -- -- -- -- -- -- -- -- -- --
R17/35
XWnd -6 VRB VRB VRB VRB VRB VRB VRB VRB VRB VRB -0 -0 -0
HWnd -4 VRB VRB VRB VRB VRB VRB VRB VRB VRB VRB 10 10 10
R18/36
XWnd -6 VRB VRB VRB VRB VRB VRB VRB VRB VRB VRB -0 -0 -0
HWnd -4 VRB VRB VRB VRB VRB VRB VRB VRB VRB VRB 10 10 10

NOTE: TEMPO conditions in [brackets]. Keep in mind TEMPO conditions might be better (lower impact) than prevailing conditions.

Raw TAF
KMCO 182327Z 1900/1924 29007KT P6SM FEW050 BKN200
  FM190300 00000KT P6SM BKN250
  FM191400 18010KT P6SM SCT030 BKN250
  FM191800 25008KT P6SM VCTS SCT040CB BKN250


Raw METAR
KMCO 190253Z 30007KT 10SM FEW030 BKN180 OVC300 27/22 A2999 RMK AO2 SLP155 OCNL LTGIC DSNT NE CB DSNT NE T02670217 51021
KMCO 190153Z 32006KT 10SM SCT190 BKN300 27/22 A2998 RMK AO2 SLP149 T02720217
KMCO 190053Z 32008KT 10SM FEW045 SCT190 BKN300 28/21 A2996 RMK AO2 SLP144 LTG DSNT SE T02830211

METAR Board
Radar Display
Forecast Discussion

TAF Board Legend

Potential Impact
Threat None Slight Moderate High
Visibility (sm) ≥5.1 5.1>X≥3 3>X≥1 <1
Ceiling (100 ft) ≥30.1 30.1>X≥10 10>X≥5 <5
Wind Speed (kt) <10 10≤X<20 20≤X<30 ≥30
Wind Gust (kt) <15 15≤X<25 25≤X<35 ≥35
Weather No Wx Reported VCTS,-TS,-FZRA,SN TS,FZRA +TS,+FZRA,+SN